Terminal Aerodrome Forecast
Issued by NWS

Home | Current Version | Previous Version | Text Only | Print | Product List | Glossary On
Versions: 1 2 3 4 5 6 7 8 9 10 11 12 13 14 15 16 17 18 19 20 21 22 23 24 25 26 27 28 29 30 31
344
FTUS44 KOHX 271128
TAFCKV
TAF
KCKV 271128Z 2712/2812 18007KT P6SM VCTS OVC035CB
      TEMPO 2712/2714 4SM -SHRA OVC030
     FM271600 20010G20KT P6SM SCT040 BKN060
     FM272200 20010G18KT 6SM -SHRA VCTS BKN045CB
      TEMPO 2722/2724 2SM -TSRA BR OVC025CB
     FM280100 22007KT 4SM -SHRA OVC035
     FM280800 29007KT 3SM BR OVC015=

USA.gov is the U.S. government's official web portal to all federal, state and local government web resources and services.